Whetstone, United Kingdom
Current Conditions -  °F | °C
As of 2:50 PM on Saturday 20 Dec 2014 (Local Time) from EGWU Reporting Station
Scattered Clouds Scattered Clouds  
Wind Chill:   Ceiling: Unl
Heat Index:   Visibility: 6mi
Dew Point:   Wind: 14mph
Humidity: 66%   Direction: 290°WNW
Pressure: 30.3"   Gusts: NA
Location:  51.63°N, 0.16°W
Report Text: EGWU 201450Z 29012KT 9999 SCT032 SCT045 09/03 Q1026 NOSIG
Loading
Personal Weather Stations






























Interactive Weather Map New forecast layout! Learn more

10-Day Weather Forecast

Advertisements
Track Severe Weather on mobile